sensor_id;sensor_type;location;lat;lon;timestamp;pressure;altitude;pressure_sealevel;temperature;humidity
72210;BME280;60113;48.762;12.302;2022-11-15T00:00:03;97250.16;;;-0.79;89.16
72210;BME280;60113;48.762;12.302;2022-11-15T00:02:29;97245.97;;;-0.81;89.88
72210;BME280;60113;48.762;12.302;2022-11-15T00:04:55;97242.59;;;-0.85;89.35
72210;BME280;60113;48.762;12.302;2022-11-15T00:07:20;97240.06;;;-0.86;88.58
72210;BME280;60113;48.762;12.302;2022-11-15T00:09:46;97235.88;;;-0.89;89.14
72210;BME280;60113;48.762;12.302;2022-11-15T00:12:11;97236.81;;;-0.92;89.26
72210;BME280;60113;48.762;12.302;2022-11-15T00:14:37;97235.09;;;-0.93;89.03
72210;BME280;60113;48.762;12.302;2022-11-15T00:17:02;97234.38;;;-0.96;89.14
72210;BME280;60113;48.762;12.302;2022-11-15T00:19:28;97228.50;;;-1.02;88.94
72210;BME280;60113;48.762;12.302;2022-11-15T00:21:53;97231.19;;;-1.06;89.53
72210;BME280;60113;48.762;12.302;2022-11-15T00:24:19;97230.44;;;-1.10;88.25
72210;BME280;60113;48.762;12.302;2022-11-15T00:26:44;97227.06;;;-1.12;88.09
72210;BME280;60113;48.762;12.302;2022-11-15T00:29:10;97234.91;;;-1.15;88.04
72210;BME280;60113;48.762;12.302;2022-11-15T00:31:35;97231.56;;;-1.19;88.33
72210;BME280;60113;48.762;12.302;2022-11-15T00:34:01;97239.44;;;-1.23;88.54
72210;BME280;60113;48.762;12.302;2022-11-15T00:36:26;97237.88;;;-1.29;88.89
72210;BME280;60113;48.762;12.302;2022-11-15T00:38:52;97237.97;;;-1.32;90.01
72210;BME280;60113;48.762;12.302;2022-11-15T00:41:17;97235.47;;;-1.35;89.39
72210;BME280;60113;48.762;12.302;2022-11-15T00:43:43;97240.66;;;-1.37;89.72
72210;BME280;60113;48.762;12.302;2022-11-15T00:46:09;97237.25;;;-1.38;90.10
72210;BME280;60113;48.762;12.302;2022-11-15T00:48:35;97233.75;;;-1.35;88.71
72210;BME280;60113;48.762;12.302;2022-11-15T00:51:01;97225.75;;;-1.27;91.28
72210;BME280;60113;48.762;12.302;2022-11-15T00:53:27;97227.44;;;-1.24;93.09
72210;BME280;60113;48.762;12.302;2022-11-15T00:55:53;97219.66;;;-1.23;92.29
72210;BME280;60113;48.762;12.302;2022-11-15T00:58:18;97219.59;;;-1.21;89.90
72210;BME280;60113;48.762;12.302;2022-11-15T01:00:44;97215.28;;;-1.21;89.93
72210;BME280;60113;48.762;12.302;2022-11-15T01:03:09;97213.59;;;-1.22;88.75
72210;BME280;60113;48.762;12.302;2022-11-15T01:05:37;97214.53;;;-1.24;87.59
72210;BME280;60113;48.762;12.302;2022-11-15T01:08:03;97214.59;;;-1.26;87.30
72210;BME280;60113;48.762;12.302;2022-11-15T01:10:28;97206.84;;;-1.26;87.03
72210;BME280;60113;48.762;12.302;2022-11-15T01:12:54;97204.22;;;-1.24;91.54
72210;BME280;60113;48.762;12.302;2022-11-15T01:15:20;97201.66;;;-1.24;89.78
72210;BME280;60113;48.762;12.302;2022-11-15T01:17:45;97197.34;;;-1.26;88.35
72210;BME280;60113;48.762;12.302;2022-11-15T01:20:11;97199.13;;;-1.26;88.70
72210;BME280;60113;48.762;12.302;2022-11-15T01:22:37;97207.81;;;-1.30;89.86
72210;BME280;60113;48.762;12.302;2022-11-15T01:25:03;97202.00;;;-1.37;89.10
72210;BME280;60113;48.762;12.302;2022-11-15T01:27:28;97192.72;;;-1.43;89.25
72210;BME280;60113;48.762;12.302;2022-11-15T01:29:53;97189.38;;;-1.46;88.36
72210;BME280;60113;48.762;12.302;2022-11-15T01:32:21;97192.94;;;-1.51;88.50
72210;BME280;60113;48.762;12.302;2022-11-15T01:34:46;97188.72;;;-1.55;88.58
72210;BME280;60113;48.762;12.302;2022-11-15T01:37:12;97191.41;;;-1.58;88.52
72210;BME280;60113;48.762;12.302;2022-11-15T01:39:38;97188.91;;;-1.61;88.45
72210;BME280;60113;48.762;12.302;2022-11-15T01:42:03;97175.31;;;-1.66;88.25
72210;BME280;60113;48.762;12.302;2022-11-15T01:44:43;97176.31;;;-1.72;88.54
72210;BME280;60113;48.762;12.302;2022-11-15T01:47:21;97171.28;;;-1.77;88.95
72210;BME280;60113;48.762;12.302;2022-11-15T01:52:21;97168.06;;;-1.83;87.85
72210;BME280;60113;48.762;12.302;2022-11-15T01:54:49;97172.41;;;-1.85;87.66
72210;BME280;60113;48.762;12.302;2022-11-15T01:57:16;97161.28;;;-1.88;87.69
72210;BME280;60113;48.762;12.302;2022-11-15T01:59:43;97157.88;;;-1.88;88.12
72210;BME280;60113;48.762;12.302;2022-11-15T02:02:10;97166.38;;;-1.86;89.38
72210;BME280;60113;48.762;12.302;2022-11-15T02:04:44;97161.19;;;-1.84;88.76
72210;BME280;60113;48.762;12.302;2022-11-15T02:07:13;97150.94;;;-1.86;89.09
72210;BME280;60113;48.762;12.302;2022-11-15T02:09:40;97155.31;;;-1.88;88.69
72210;BME280;60113;48.762;12.302;2022-11-15T02:12:07;97157.06;;;-1.90;88.32
72210;BME280;60113;48.762;12.302;2022-11-15T02:14:34;97151.09;;;-1.92;89.32
72210;BME280;60113;48.762;12.302;2022-11-15T02:25:16;97147.06;;;-2.01;91.50
72210;BME280;60113;48.762;12.302;2022-11-15T02:28:06;97151.47;;;-2.05;91.65
72210;BME280;60113;48.762;12.302;2022-11-15T02:30:44;97137.81;;;-2.08;90.54
72210;BME280;60113;48.762;12.302;2022-11-15T02:36:24;97137.03;;;-2.12;89.70
72210;BME280;60113;48.762;12.302;2022-11-15T02:39:23;97130.28;;;-2.16;89.74
72210;BME280;60113;48.762;12.302;2022-11-15T02:42:01;97124.31;;;-2.18;90.79
72210;BME280;60113;48.762;12.302;2022-11-15T02:44:43;97121.78;;;-2.20;89.96
72210;BME280;60113;48.762;12.302;2022-11-15T02:47:13;97114.97;;;-2.21;91.18
72210;BME280;60113;48.762;12.302;2022-11-15T02:49:45;97112.41;;;-2.21;92.10
72210;BME280;60113;48.762;12.302;2022-11-15T02:52:19;97110.75;;;-2.23;93.65
72210;BME280;60113;48.762;12.302;2022-11-15T02:54:59;97114.19;;;-2.24;94.16
72210;BME280;60113;48.762;12.302;2022-11-15T03:08:22;97104.84;;;-2.27;90.75
72210;BME280;60113;48.762;12.302;2022-11-15T03:11:09;97109.13;;;-2.28;90.16
72210;BME280;60113;48.762;12.302;2022-11-15T03:16:16;97101.31;;;-2.24;90.14
72210;BME280;60113;48.762;12.302;2022-11-15T03:18:51;97106.56;;;-2.28;89.61
72210;BME280;60113;48.762;12.302;2022-11-15T03:21:19;97117.75;;;-2.29;89.60
72210;BME280;60113;48.762;12.302;2022-11-15T03:23:47;97108.34;;;-2.30;88.81
72210;BME280;60113;48.762;12.302;2022-11-15T03:26:16;97105.84;;;-2.33;88.13
72210;BME280;60113;48.762;12.302;2022-11-15T03:28:49;97100.78;;;-2.36;88.65
72210;BME280;60113;48.762;12.302;2022-11-15T03:31:16;97096.56;;;-2.40;88.82
72210;BME280;60113;48.762;12.302;2022-11-15T03:34:04;97100.97;;;-2.44;89.43
72210;BME280;60113;48.762;12.302;2022-11-15T03:36:33;97096.78;;;-2.48;89.46
72210;BME280;60113;48.762;12.302;2022-11-15T03:39:02;97089.19;;;-2.53;89.09
72210;BME280;60113;48.762;12.302;2022-11-15T03:42:04;97096.19;;;-2.58;89.04
72210;BME280;60113;48.762;12.302;2022-11-15T03:44:36;97089.44;;;-2.64;88.82
72210;BME280;60113;48.762;12.302;2022-11-15T03:47:19;97089.56;;;-2.67;89.53
72210;BME280;60113;48.762;12.302;2022-11-15T03:49:52;97089.63;;;-2.70;89.20
72210;BME280;60113;48.762;12.302;2022-11-15T03:52:20;97094.00;;;-2.73;88.55
72210;BME280;60113;48.762;12.302;2022-11-15T03:54:54;97090.56;;;-2.74;88.27
72210;BME280;60113;48.762;12.302;2022-11-15T03:57:20;97090.56;;;-2.74;87.67
72210;BME280;60113;48.762;12.302;2022-11-15T03:59:46;97094.00;;;-2.73;87.21
72210;BME280;60113;48.762;12.302;2022-11-15T04:02:12;97098.22;;;-2.71;87.74
72210;BME280;60113;48.762;12.302;2022-11-15T04:04:37;97095.66;;;-2.71;87.11
72210;BME280;60113;48.762;12.302;2022-11-15T04:07:03;97091.34;;;-2.70;87.10
72210;BME280;60113;48.762;12.302;2022-11-15T04:09:29;97092.22;;;-2.70;88.62
72210;BME280;60113;48.762;12.302;2022-11-15T04:11:55;97090.53;;;-2.72;89.43
72210;BME280;60113;48.762;12.302;2022-11-15T04:14:21;97095.72;;;-2.74;90.12
72210;BME280;60113;48.762;12.302;2022-11-15T04:16:46;97091.44;;;-2.73;89.54
72210;BME280;60113;48.762;12.302;2022-11-15T04:19:12;97088.84;;;-2.73;88.93
72210;BME280;60113;48.762;12.302;2022-11-15T04:21:56;97083.75;;;-2.75;88.37
72210;BME280;60113;48.762;12.302;2022-11-15T04:24:40;97082.03;;;-2.74;90.97
72210;BME280;60113;48.762;12.302;2022-11-15T04:27:05;97083.78;;;-2.77;89.82
72210;BME280;60113;48.762;12.302;2022-11-15T04:29:31;97074.34;;;-2.76;87.92
72210;BME280;60113;48.762;12.302;2022-11-15T04:32:05;97076.03;;;-2.75;88.39
72210;BME280;60113;48.762;12.302;2022-11-15T04:34:32;97071.78;;;-2.76;88.74
72210;BME280;60113;48.762;12.302;2022-11-15T04:36:58;97070.81;;;-2.72;93.39
72210;BME280;60113;48.762;12.302;2022-11-15T04:39:42;97078.50;;;-2.70;91.69
72210;BME280;60113;48.762;12.302;2022-11-15T04:42:08;97069.97;;;-2.72;90.64
72210;BME280;60113;48.762;12.302;2022-11-15T04:44:34;97070.00;;;-2.74;89.76
72210;BME280;60113;48.762;12.302;2022-11-15T04:47:00;97061.53;;;-2.78;91.07
72210;BME280;60113;48.762;12.302;2022-11-15T04:49:26;97075.28;;;-2.80;89.77
72210;BME280;60113;48.762;12.302;2022-11-15T04:51:51;97062.47;;;-2.82;89.71
72210;BME280;60113;48.762;12.302;2022-11-15T04:54:17;97062.56;;;-2.85;89.06
72210;BME280;60113;48.762;12.302;2022-11-15T04:56:43;97064.34;;;-2.87;89.68
72210;BME280;60113;48.762;12.302;2022-11-15T04:59:08;97071.22;;;-2.89;90.17
72210;BME280;60113;48.762;12.302;2022-11-15T05:01:34;97071.28;;;-2.91;90.01
72210;BME280;60113;48.762;12.302;2022-11-15T05:03:59;97072.25;;;-2.95;89.31
72210;BME280;60113;48.762;12.302;2022-11-15T05:06:43;97060.28;;;-2.97;88.90
72210;BME280;60113;48.762;12.302;2022-11-15T05:09:09;97062.03;;;-2.98;89.69
72210;BME280;60113;48.762;12.302;2022-11-15T05:11:35;97059.50;;;-2.99;87.96
72210;BME280;60113;48.762;12.302;2022-11-15T05:14:00;97060.22;;;-2.94;93.37
72210;BME280;60113;48.762;12.302;2022-11-15T05:16:26;97055.00;;;-2.91;93.80
72210;BME280;60113;48.762;12.302;2022-11-15T05:18:52;97054.91;;;-2.88;92.18
72210;BME280;60113;48.762;12.302;2022-11-15T05:21:18;97051.47;;;-2.87;93.02
72210;BME280;60113;48.762;12.302;2022-11-15T05:23:44;97053.19;;;-2.87;91.72
72210;BME280;60113;48.762;12.302;2022-11-15T05:26:10;97050.66;;;-2.89;90.95
72210;BME280;60113;48.762;12.302;2022-11-15T05:28:36;97054.13;;;-2.90;90.54
72210;BME280;60113;48.762;12.302;2022-11-15T05:31:03;97051.63;;;-2.93;89.98
72210;BME280;60113;48.762;12.302;2022-11-15T05:33:30;97049.91;;;-2.94;89.95
72210;BME280;60113;48.762;12.302;2022-11-15T05:36:00;97044.84;;;-2.97;89.97
72210;BME280;60113;48.762;12.302;2022-11-15T05:38:28;97035.50;;;-3.00;90.06
72210;BME280;60113;48.762;12.302;2022-11-15T05:40:54;97036.44;;;-3.03;90.32
72210;BME280;60113;48.762;12.302;2022-11-15T05:43:20;97038.09;;;-3.02;89.48
72210;BME280;60113;48.762;12.302;2022-11-15T05:45:45;97036.34;;;-2.99;90.33
72210;BME280;60113;48.762;12.302;2022-11-15T05:48:11;97031.22;;;-2.99;88.67
72210;BME280;60113;48.762;12.302;2022-11-15T05:50:38;97029.47;;;-2.99;87.93
72210;BME280;60113;48.762;12.302;2022-11-15T05:53:06;97027.63;;;-2.94;89.62
72210;BME280;60113;48.762;12.302;2022-11-15T05:55:33;97024.94;;;-2.89;89.80
72210;BME280;60113;48.762;12.302;2022-11-15T05:57:59;97024.06;;;-2.88;89.86
72210;BME280;60113;48.762;12.302;2022-11-15T06:00:25;97020.63;;;-2.87;91.21
72210;BME280;60113;48.762;12.302;2022-11-15T06:02:51;97030.91;;;-2.87;91.04
72210;BME280;60113;48.762;12.302;2022-11-15T06:05:16;97030.09;;;-2.89;90.63
72210;BME280;60113;48.762;12.302;2022-11-15T06:07:42;97022.44;;;-2.92;90.74
72210;BME280;60113;48.762;12.302;2022-11-15T06:10:09;97022.44;;;-2.92;90.18
72210;BME280;60113;48.762;12.302;2022-11-15T06:12:34;97023.34;;;-2.93;90.40
72210;BME280;60113;48.762;12.302;2022-11-15T06:15:00;97025.03;;;-2.92;90.24
72210;BME280;60113;48.762;12.302;2022-11-15T06:17:26;97023.25;;;-2.90;89.63
72210;BME280;60113;48.762;12.302;2022-11-15T06:19:52;97017.16;;;-2.86;89.49
72210;BME280;60113;48.762;12.302;2022-11-15T06:22:17;97024.75;;;-2.81;90.51
72210;BME280;60113;48.762;12.302;2022-11-15T06:24:43;97028.13;;;-2.79;89.74
72210;BME280;60113;48.762;12.302;2022-11-15T06:27:10;97030.72;;;-2.79;88.84
72210;BME280;60113;48.762;12.302;2022-11-15T06:29:36;97021.28;;;-2.80;89.47
72210;BME280;60113;48.762;12.302;2022-11-15T06:32:01;97024.66;;;-2.78;89.81
72210;BME280;60113;48.762;12.302;2022-11-15T06:34:27;97026.34;;;-2.77;89.83
72210;BME280;60113;48.762;12.302;2022-11-15T06:36:52;97010.91;;;-2.77;89.40
72210;BME280;60113;48.762;12.302;2022-11-15T06:39:18;97021.16;;;-2.76;89.31
72210;BME280;60113;48.762;12.302;2022-11-15T06:41:43;97010.88;;;-2.76;89.62
72210;BME280;60113;48.762;12.302;2022-11-15T06:44:09;97008.31;;;-2.76;89.65
72210;BME280;60113;48.762;12.302;2022-11-15T06:46:34;97013.44;;;-2.76;89.20
72210;BME280;60113;48.762;12.302;2022-11-15T06:49:01;97015.16;;;-2.74;89.63
72210;BME280;60113;48.762;12.302;2022-11-15T06:51:26;97016.91;;;-2.77;90.13
72210;BME280;60113;48.762;12.302;2022-11-15T06:53:55;97019.47;;;-2.77;89.63
72210;BME280;60113;48.762;12.302;2022-11-15T06:56:25;97020.41;;;-2.79;89.43
72210;BME280;60113;48.762;12.302;2022-11-15T06:58:50;97018.72;;;-2.80;89.62
72210;BME280;60113;48.762;12.302;2022-11-15T07:01:16;97022.13;;;-2.80;89.99
72210;BME280;60113;48.762;12.302;2022-11-15T07:03:42;97011.00;;;-2.80;89.36
72210;BME280;60113;48.762;12.302;2022-11-15T07:06:08;97015.22;;;-2.78;91.43
72210;BME280;60113;48.762;12.302;2022-11-15T07:08:35;97013.44;;;-2.76;91.83
72210;BME280;60113;48.762;12.302;2022-11-15T07:11:03;97021.13;;;-2.74;91.56
72210;BME280;60113;48.762;12.302;2022-11-15T07:13:30;97018.44;;;-2.69;92.32
72210;BME280;60113;48.762;12.302;2022-11-15T07:16:07;97022.59;;;-2.65;90.36
72210;BME280;60113;48.762;12.302;2022-11-15T07:18:35;97027.63;;;-2.60;89.42
72210;BME280;60113;48.762;12.302;2022-11-15T07:21:05;97016.38;;;-2.56;89.26
72210;BME280;60113;48.762;12.302;2022-11-15T07:23:31;97016.19;;;-2.48;93.12
72210;BME280;60113;48.762;12.302;2022-11-15T07:25:59;97015.13;;;-2.41;91.92
72210;BME280;60113;48.762;12.302;2022-11-15T07:28:26;97012.28;;;-2.32;89.79
72210;BME280;60113;48.762;12.302;2022-11-15T07:30:51;97005.91;;;-2.18;91.86
72210;BME280;60113;48.762;12.302;2022-11-15T07:33:17;97004.72;;;-2.06;90.57
72210;BME280;60113;48.762;12.302;2022-11-15T07:35:42;97009.44;;;-1.92;92.89
72210;BME280;60113;48.762;12.302;2022-11-15T07:38:08;97006.50;;;-1.80;91.99
72210;BME280;60113;48.762;12.302;2022-11-15T07:40:34;97006.84;;;-1.62;91.79
72210;BME280;60113;48.762;12.302;2022-11-15T07:43:04;97009.56;;;-1.38;92.06
72210;BME280;60113;48.762;12.302;2022-11-15T07:45:31;97005.28;;;-1.12;92.52
72210;BME280;60113;48.762;12.302;2022-11-15T07:47:58;97007.81;;;-0.85;92.98
72210;BME280;60113;48.762;12.302;2022-11-15T07:50:24;97009.41;;;-0.55;93.68
72210;BME280;60113;48.762;12.302;2022-11-15T07:52:54;97000.38;;;-0.19;95.39
72210;BME280;60113;48.762;12.302;2022-11-15T07:55:21;97001.72;;;0.15;96.17
72210;BME280;60113;48.762;12.302;2022-11-15T07:57:47;96997.97;;;0.46;96.65
72210;BME280;60113;48.762;12.302;2022-11-15T08:00:13;97009.69;;;0.76;97.53
72210;BME280;60113;48.762;12.302;2022-11-15T08:02:39;97002.59;;;1.04;97.93
72210;BME280;60113;48.762;12.302;2022-11-15T08:05:04;96994.88;;;1.23;98.52
72210;BME280;60113;48.762;12.302;2022-11-15T08:07:30;97003.41;;;1.25;98.70
72210;BME280;60113;48.762;12.302;2022-11-15T08:09:57;96997.59;;;1.20;99.07
72210;BME280;60113;48.762;12.302;2022-11-15T08:12:23;97000.50;;;1.12;99.07
72210;BME280;60113;48.762;12.302;2022-11-15T08:14:49;97009.31;;;1.08;99.66
72210;BME280;60113;48.762;12.302;2022-11-15T08:17:15;97006.84;;;1.05;99.91
72210;BME280;60113;48.762;12.302;2022-11-15T08:19:41;97007.81;;;1.02;100.00
72210;BME280;60113;48.762;12.302;2022-11-15T08:22:07;97001.00;;;0.99;99.86
72210;BME280;60113;48.762;12.302;2022-11-15T08:24:32;96998.47;;;0.98;99.82
72210;BME280;60113;48.762;12.302;2022-11-15T08:26:59;96994.16;;;0.98;100.00
72210;BME280;60113;48.762;12.302;2022-11-15T08:29:25;96988.84;;;1.02;99.85
72210;BME280;60113;48.762;12.302;2022-11-15T08:31:51;96989.44;;;1.08;99.65
72210;BME280;60113;48.762;12.302;2022-11-15T08:34:16;96991.72;;;1.16;100.00
72210;BME280;60113;48.762;12.302;2022-11-15T08:36:42;96984.38;;;1.26;100.00
72210;BME280;60113;48.762;12.302;2022-11-15T08:39:10;96977.00;;;1.37;99.29
72210;BME280;60113;48.762;12.302;2022-11-15T08:41:37;96974.84;;;1.47;98.70
72210;BME280;60113;48.762;12.302;2022-11-15T08:44:03;96957.09;;;1.59;96.94
72210;BME280;60113;48.762;12.302;2022-11-15T08:46:29;96957.72;;;1.83;97.55
72210;BME280;60113;48.762;12.302;2022-11-15T08:48:54;96954.16;;;2.24;98.06
72210;BME280;60113;48.762;12.302;2022-11-15T08:51:19;96951.75;;;2.74;98.39
72210;BME280;60113;48.762;12.302;2022-11-15T08:53:45;96945.81;;;3.25;98.34
72210;BME280;60113;48.762;12.302;2022-11-15T08:56:12;96937.03;;;3.78;98.63
72210;BME280;60113;48.762;12.302;2022-11-15T08:58:38;96932.41;;;4.32;98.01
72210;BME280;60113;48.762;12.302;2022-11-15T09:01:04;96933.41;;;4.76;97.94
72210;BME280;60113;48.762;12.302;2022-11-15T09:03:30;96926.81;;;5.16;97.70
72210;BME280;60113;48.762;12.302;2022-11-15T09:05:57;96932.25;;;5.56;97.49
72210;BME280;60113;48.762;12.302;2022-11-15T09:08:23;96937.41;;;6.00;96.24
72210;BME280;60113;48.762;12.302;2022-11-15T09:10:49;96937.50;;;6.41;95.89
72210;BME280;60113;48.762;12.302;2022-11-15T09:13:14;96939.59;;;6.76;95.93
72210;BME280;60113;48.762;12.302;2022-11-15T09:15:39;96933.19;;;7.08;95.27
72210;BME280;60113;48.762;12.302;2022-11-15T09:18:05;96927.16;;;7.33;94.49
72210;BME280;60113;48.762;12.302;2022-11-15T09:20:30;96911.88;;;7.53;93.93
72210;BME280;60113;48.762;12.302;2022-11-15T09:23:00;96905.75;;;7.79;93.68
72210;BME280;60113;48.762;12.302;2022-11-15T09:25:26;96907.41;;;8.17;93.64
72210;BME280;60113;48.762;12.302;2022-11-15T09:27:52;96904.72;;;8.43;90.17
72210;BME280;60113;48.762;12.302;2022-11-15T09:30:17;96908.34;;;8.54;88.45
72210;BME280;60113;48.762;12.302;2022-11-15T09:32:43;96903.41;;;8.62;85.74
72210;BME280;60113;48.762;12.302;2022-11-15T09:35:08;96898.41;;;8.70;86.04
72210;BME280;60113;48.762;12.302;2022-11-15T09:37:33;96890.22;;;8.75;83.72
72210;BME280;60113;48.762;12.302;2022-11-15T09:39:59;96895.44;;;8.63;82.47
72210;BME280;60113;48.762;12.302;2022-11-15T09:42:41;96886.75;;;8.74;82.77
72210;BME280;60113;48.762;12.302;2022-11-15T09:45:31;96882.97;;;8.90;86.18
72210;BME280;60113;48.762;12.302;2022-11-15T09:50:49;96881.16;;;9.27;85.95
72210;BME280;60113;48.762;12.302;2022-11-15T09:54:29;96877.59;;;9.39;79.59
72210;BME280;60113;48.762;12.302;2022-11-15T09:56:26;96876.03;;;9.48;82.83
72210;BME280;60113;48.762;12.302;2022-11-15T10:04:30;96861.88;;;10.06;86.44
72210;BME280;60113;48.762;12.302;2022-11-15T10:07:16;96870.56;;;10.18;82.97
72210;BME280;60113;48.762;12.302;2022-11-15T10:09:51;96871.38;;;10.30;82.87
72210;BME280;60113;48.762;12.302;2022-11-15T10:12:18;96864.09;;;10.34;85.86
72210;BME280;60113;48.762;12.302;2022-11-15T10:14:45;96862.63;;;10.41;85.23
72210;BME280;60113;48.762;12.302;2022-11-15T10:17:25;96854.13;;;10.49;81.72
72210;BME280;60113;48.762;12.302;2022-11-15T10:22:46;96844.22;;;10.74;84.31
72210;BME280;60113;48.762;12.302;2022-11-15T10:25:27;96841.53;;;10.85;84.99
72210;BME280;60113;48.762;12.302;2022-11-15T10:30:19;96829.59;;;11.34;86.15
72210;BME280;60113;48.762;12.302;2022-11-15T10:32:46;96822.16;;;11.49;87.73
72210;BME280;60113;48.762;12.302;2022-11-15T10:37:49;96812.16;;;11.33;80.74
72210;BME280;60113;48.762;12.302;2022-11-15T10:40:23;96802.03;;;11.28;82.39
72210;BME280;60113;48.762;12.302;2022-11-15T10:45:35;96798.66;;;11.16;83.38
72210;BME280;60113;48.762;12.302;2022-11-15T10:50:40;96790.28;;;11.32;83.45
72210;BME280;60113;48.762;12.302;2022-11-15T10:53:23;96781.13;;;11.27;78.07
72210;BME280;60113;48.762;12.302;2022-11-15T10:55:51;96777.84;;;11.34;82.68
72210;BME280;60113;48.762;12.302;2022-11-15T10:58:37;96770.50;;;11.38;86.25
72210;BME280;60113;48.762;12.302;2022-11-15T11:01:26;96755.75;;;11.16;74.73
72210;BME280;60113;48.762;12.302;2022-11-15T11:04:04;96750.59;;;11.55;82.59
72210;BME280;60113;48.762;12.302;2022-11-15T11:06:31;96739.03;;;11.87;84.57
72210;BME280;60113;48.762;12.302;2022-11-15T11:09:22;96733.22;;;11.94;80.42
72210;BME280;60113;48.762;12.302;2022-11-15T11:11:50;96734.59;;;12.28;85.85
72210;BME280;60113;48.762;12.302;2022-11-15T11:14:24;96735.28;;;12.49;84.93
72210;BME280;60113;48.762;12.302;2022-11-15T11:20:40;96719.00;;;13.02;85.17
72210;BME280;60113;48.762;12.302;2022-11-15T11:26:06;96702.94;;;13.52;86.01
72210;BME280;60113;48.762;12.302;2022-11-15T11:36:57;96693.47;;;14.22;69.54
72210;BME280;60113;48.762;12.302;2022-11-15T11:40:29;96677.22;;;14.35;79.26
72210;BME280;60113;48.762;12.302;2022-11-15T11:47:47;96667.81;;;14.59;76.89
72210;BME280;60113;48.762;12.302;2022-11-15T11:50:22;96656.63;;;14.38;69.05
72210;BME280;60113;48.762;12.302;2022-11-15T11:53:11;96667.25;;;14.02;64.30
72210;BME280;60113;48.762;12.302;2022-11-15T11:55:46;96658.19;;;14.05;73.66
72210;BME280;60113;48.762;12.302;2022-11-15T11:58:17;96667.84;;;13.96;76.68
72210;BME280;60113;48.762;12.302;2022-11-15T12:00:51;96652.88;;;14.05;83.07
72210;BME280;60113;48.762;12.302;2022-11-15T12:03:46;96654.00;;;13.94;66.71
72210;BME280;60113;48.762;12.302;2022-11-15T12:11:37;96644.19;;;14.12;77.98
72210;BME280;60113;48.762;12.302;2022-11-15T12:14:13;96651.31;;;14.12;71.51
72210;BME280;60113;48.762;12.302;2022-11-15T12:16:43;96640.38;;;14.33;83.41
72210;BME280;60113;48.762;12.302;2022-11-15T12:19:08;96643.94;;;14.50;83.39
72210;BME280;60113;48.762;12.302;2022-11-15T12:22:03;96637.94;;;14.67;78.60
72210;BME280;60113;48.762;12.302;2022-11-15T12:24:48;96631.91;;;14.83;78.18
72210;BME280;60113;48.762;12.302;2022-11-15T12:27:50;96629.78;;;14.95;79.25
72210;BME280;60113;48.762;12.302;2022-11-15T12:30:19;96623.53;;;15.04;80.70
72210;BME280;60113;48.762;12.302;2022-11-15T12:33:00;96623.28;;;14.81;63.88
72210;BME280;60113;48.762;12.302;2022-11-15T12:35:36;96605.63;;;14.81;77.11
72210;BME280;60113;48.762;12.302;2022-11-15T12:38:03;96609.00;;;15.00;81.51
72210;BME280;60113;48.762;12.302;2022-11-15T12:40:32;96610.03;;;15.16;80.67
72210;BME280;60113;48.762;12.302;2022-11-15T12:45:44;96612.88;;;15.39;78.06
72210;BME280;60113;48.762;12.302;2022-11-15T12:58:59;96595.03;;;15.74;76.97
72210;BME280;60113;48.762;12.302;2022-11-15T13:11:56;96578.81;;;15.78;75.76
72210;BME280;60113;48.762;12.302;2022-11-15T13:17:15;96584.09;;;15.36;74.70
72210;BME280;60113;48.762;12.302;2022-11-15T13:19:42;96586.56;;;15.37;76.84
72210;BME280;60113;48.762;12.302;2022-11-15T13:22:09;96578.94;;;15.43;77.68
72210;BME280;60113;48.762;12.302;2022-11-15T13:24:54;96578.63;;;15.54;76.17
72210;BME280;60113;48.762;12.302;2022-11-15T13:27:20;96572.84;;;15.67;77.10
72210;BME280;60113;48.762;12.302;2022-11-15T13:29:45;96574.84;;;15.73;77.13
72210;BME280;60113;48.762;12.302;2022-11-15T13:32:13;96571.84;;;15.68;76.10
72210;BME280;60113;48.762;12.302;2022-11-15T13:34:43;96570.38;;;15.66;73.86
72210;BME280;60113;48.762;12.302;2022-11-15T13:39:47;96557.31;;;15.64;75.18
72210;BME280;60113;48.762;12.302;2022-11-15T13:42:17;96564.72;;;15.52;69.40
72210;BME280;60113;48.762;12.302;2022-11-15T13:44:58;96561.59;;;15.40;69.28
72210;BME280;60113;48.762;12.302;2022-11-15T13:47:28;96567.03;;;15.38;73.53
72210;BME280;60113;48.762;12.302;2022-11-15T13:49:57;96566.72;;;15.33;73.01
72210;BME280;60113;48.762;12.302;2022-11-15T13:52:28;96567.22;;;15.29;71.43
72210;BME280;60113;48.762;12.302;2022-11-15T13:55:13;96570.84;;;15.19;70.26
72210;BME280;60113;48.762;12.302;2022-11-15T13:58:00;96556.28;;;15.23;72.15
72210;BME280;60113;48.762;12.302;2022-11-15T14:00:43;96562.25;;;15.34;74.33
72210;BME280;60113;48.762;12.302;2022-11-15T14:06:00;96541.88;;;15.43;69.52
72210;BME280;60113;48.762;12.302;2022-11-15T14:08:27;96539.75;;;15.38;71.49
72210;BME280;60113;48.762;12.302;2022-11-15T14:11:18;96533.28;;;15.16;61.01
72210;BME280;60113;48.762;12.302;2022-11-15T14:16:40;96527.78;;;14.92;70.13
72210;BME280;60113;48.762;12.302;2022-11-15T14:19:10;96531.09;;;14.86;71.96
72210;BME280;60113;48.762;12.302;2022-11-15T14:21:36;96521.09;;;14.63;70.39
72210;BME280;60113;48.762;12.302;2022-11-15T14:24:18;96522.09;;;14.27;68.15
72210;BME280;60113;48.762;12.302;2022-11-15T14:26:44;96512.66;;;13.90;71.26
72210;BME280;60113;48.762;12.302;2022-11-15T14:29:27;96508.84;;;13.57;70.36
72210;BME280;60113;48.762;12.302;2022-11-15T14:31:54;96522.25;;;13.28;70.78
72210;BME280;60113;48.762;12.302;2022-11-15T14:34:32;96515.72;;;12.95;71.76
72210;BME280;60113;48.762;12.302;2022-11-15T14:36:57;96514.09;;;12.66;72.31
72210;BME280;60113;48.762;12.302;2022-11-15T14:39:22;96518.25;;;12.41;72.13
72210;BME280;60113;48.762;12.302;2022-11-15T14:41:50;96510.19;;;12.14;72.07
72210;BME280;60113;48.762;12.302;2022-11-15T14:44:15;96510.53;;;11.91;71.79
72210;BME280;60113;48.762;12.302;2022-11-15T14:46:43;96509.38;;;11.66;72.49
72210;BME280;60113;48.762;12.302;2022-11-15T14:49:09;96510.78;;;11.40;72.24
72210;BME280;60113;48.762;12.302;2022-11-15T14:51:34;96507.47;;;11.18;72.55